Time;durP1;ratioP1;P1;durP2;ratioP2;P2;SDS_P1;SDS_P2;PMS_P1;PMS_P2;Temp;Humidity;BMP_temperature;BMP_pressure;BME280_temperature;BME280_humidity;BME280_pressure;Samples;Min_cycle;Max_cycle;Signal;HPM_P1;HPM_P2
2023/08/12 00:00:12;;;;;;;0.70;0.60;;;19.30;99.90;;;;;;4414631;32;20075;-65
2023/08/12 00:02:39;;;;;;;0.40;0.40;;;19.20;99.90;;;;;;4414843;32;20074;-62
2023/08/12 00:05:05;;;;;;;0.60;0.60;;;19.20;99.90;;;;;;4415032;32;20078;-63
2023/08/12 00:07:32;;;;;;;0.80;0.70;;;19.10;99.90;;;;;;4415637;32;20069;-64
2023/08/12 00:09:58;;;;;;;0.40;0.40;;;19.10;99.90;;;;;;4415150;32;20058;-64
2023/08/12 00:12:24;;;;;;;0.50;0.50;;;19.10;99.90;;;;;;4415836;32;20082;-62
2023/08/12 00:14:49;;;;;;;2.25;0.93;;;19.10;99.90;;;;;;4414223;32;20058;-65
2023/08/12 00:17:14;;;;;;;0.30;0.30;;;19.00;99.90;;;;;;4414928;32;20094;-63
2023/08/12 00:19:40;;;;;;;1.75;0.60;;;19.00;99.90;;;;;;4414408;32;20075;-64
2023/08/12 00:22:05;;;;;;;0.30;0.30;;;18.90;99.90;;;;;;4414684;32;20557;-63
2023/08/12 00:24:31;;;;;;;0.25;0.25;;;18.90;99.90;;;;;;4414627;32;20074;-65
2023/08/12 00:26:56;;;;;;;0.98;0.73;;;18.80;99.90;;;;;;4414250;32;20043;-63
2023/08/12 00:29:22;;;;;;;0.55;0.55;;;18.90;99.90;;;;;;4414427;32;20071;-65
2023/08/12 00:31:47;;;;;;;0.50;0.50;;;18.90;99.90;;;;;;4414340;32;20066;-63
2023/08/12 00:34:13;;;;;;;0.75;0.60;;;18.90;99.90;;;;;;4414307;32;20067;-64
2023/08/12 00:36:39;;;;;;;0.30;0.30;;;18.70;99.90;;;;;;4427706;27;20699;-77
2023/08/12 00:39:05;;;;;;;0.40;0.40;;;18.70;99.90;;;;;;4405538;32;20057;-76
2023/08/12 00:41:30;;;;;;;0.73;0.60;;;18.70;99.90;;;;;;4407131;32;20078;-77
2023/08/12 00:43:56;;;;;;;17.80;1.02;;;18.70;99.90;;;;;;4406425;32;20476;-77
2023/08/12 00:46:21;;;;;;;0.50;0.50;;;18.60;99.90;;;;;;4406457;32;20067;-77
2023/08/12 00:48:48;;;;;;;0.50;0.50;;;18.50;99.90;;;;;;4406366;32;20073;-77
2023/08/12 00:51:16;;;;;;;0.65;0.50;;;18.60;99.90;;;;;;4407946;32;20599;-76
2023/08/12 00:53:44;;;;;;;0.37;0.37;;;18.60;99.90;;;;;;4406419;32;20079;-76
2023/08/12 00:56:09;;;;;;;0.40;0.40;;;18.70;99.90;;;;;;4406231;32;20078;-76
2023/08/12 00:58:35;;;;;;;0.50;0.50;;;18.60;99.90;;;;;;4405291;32;20078;-77
2023/08/12 01:01:01;;;;;;;0.77;0.77;;;18.70;99.90;;;;;;4406286;32;20062;-76
2023/08/12 01:03:26;;;;;;;0.57;0.57;;;18.70;99.90;;;;;;4407480;32;20066;-76
2023/08/12 01:05:52;;;;;;;0.47;0.47;;;18.60;99.90;;;;;;4405953;32;20089;-76
2023/08/12 01:08:17;;;;;;;0.40;0.40;;;18.50;99.90;;;;;;4391756;32;20067;-76
2023/08/12 01:10:55;;;;;;;0.43;0.43;;;18.50;99.90;;;;;;4392033;32;20074;-76
2023/08/12 01:13:42;;;;;;;0.40;0.40;;;18.50;99.90;;;;;;4391486;32;20070;-75
2023/08/12 01:16:09;;;;;;;0.47;0.47;;;18.50;99.90;;;;;;4379488;32;20094;-76
2023/08/12 01:18:36;;;;;;;0.40;0.40;;;18.50;99.90;;;;;;4390690;32;20522;-76
2023/08/12 01:21:03;;;;;;;0.40;0.40;;;18.50;99.90;;;;;;4390533;32;20070;-76
2023/08/12 01:23:29;;;;;;;0.45;0.45;;;18.50;99.90;;;;;;4394066;32;20526;-76
2023/08/12 01:25:54;;;;;;;0.43;0.43;;;18.50;99.90;;;;;;4404377;32;20121;-76
2023/08/12 01:28:20;;;;;;;0.45;0.45;;;18.50;99.90;;;;;;4392323;32;20075;-77
2023/08/12 01:30:57;;;;;;;1.45;1.05;;;18.50;99.90;;;;;;4398607;32;20169;-76
2023/08/12 01:33:31;;;;;;;0.50;0.50;;;18.40;99.90;;;;;;4403654;32;20059;-77
2023/08/12 01:36:09;;;;;;;0.32;0.32;;;18.30;99.90;;;;;;4396040;32;20507;-75
2023/08/12 01:38:37;;;;;;;0.50;0.50;;;18.30;99.90;;;;;;4404880;32;20087;-76
2023/08/12 01:41:03;;;;;;;1.73;1.12;;;18.30;99.90;;;;;;4395045;32;20071;-76
2023/08/12 01:43:29;;;;;;;0.65;0.65;;;18.30;99.90;;;;;;4394372;32;20073;-77
2023/08/12 01:45:55;;;;;;;0.52;0.45;;;18.30;99.90;;;;;;4399495;32;20066;-77
2023/08/12 01:48:22;;;;;;;0.30;0.30;;;18.30;99.90;;;;;;4402292;32;20498;-75
2023/08/12 01:50:48;;;;;;;2.12;0.88;;;18.30;99.90;;;;;;4404453;32;20062;-76
2023/08/12 01:53:14;;;;;;;0.47;0.47;;;18.20;99.90;;;;;;4391995;32;20163;-77
2023/08/12 01:55:44;;;;;;;0.60;0.60;;;18.20;99.90;;;;;;4396038;32;20121;-76
2023/08/12 01:58:10;;;;;;;0.57;0.57;;;18.20;99.90;;;;;;4400819;32;20744;-76
2023/08/12 02:00:36;;;;;;;0.40;0.40;;;18.30;99.90;;;;;;4403239;32;20078;-76
2023/08/12 02:03:02;;;;;;;0.50;0.50;;;18.30;99.90;;;;;;4404277;32;20075;-76
2023/08/12 02:05:27;;;;;;;0.95;0.50;;;18.30;99.90;;;;;;4403302;32;20125;-76
2023/08/12 02:07:53;;;;;;;1.10;1.00;;;18.30;99.90;;;;;;4401504;32;20129;-77
2023/08/12 02:10:18;;;;;;;0.47;0.47;;;18.30;99.90;;;;;;4394336;32;20067;-76
2023/08/12 02:12:44;;;;;;;0.82;0.75;;;18.30;99.90;;;;;;4400644;32;20382;-76
2023/08/12 02:15:09;;;;;;;0.37;0.37;;;18.30;99.90;;;;;;4403620;32;20070;-76
2023/08/12 02:17:35;;;;;;;2.33;0.52;;;18.30;99.90;;;;;;4392993;32;20116;-76
2023/08/12 02:20:00;;;;;;;0.93;0.73;;;18.40;99.90;;;;;;4403071;32;20070;-75
2023/08/12 02:22:26;;;;;;;12.85;1.40;;;18.40;99.90;;;;;;4397839;32;20280;-76
2023/08/12 02:24:51;;;;;;;0.45;0.45;;;18.40;99.90;;;;;;4400737;32;20069;-76
2023/08/12 02:27:17;;;;;;;1.77;1.00;;;18.40;99.90;;;;;;4396178;32;20067;-75
2023/08/12 02:29:43;;;;;;;0.40;0.40;;;18.40;99.90;;;;;;4389140;32;20071;-77
2023/08/12 02:32:08;;;;;;;0.43;0.43;;;18.40;99.90;;;;;;4400538;32;20456;-76
2023/08/12 02:34:34;;;;;;;1.65;0.80;;;18.50;99.90;;;;;;4397792;32;20136;-76
2023/08/12 02:36:59;;;;;;;0.60;0.60;;;18.50;99.90;;;;;;4397013;32;20082;-76
2023/08/12 02:39:25;;;;;;;0.37;0.37;;;18.50;99.90;;;;;;4403040;32;20078;-76
2023/08/12 02:41:50;;;;;;;1.00;0.88;;;18.50;99.90;;;;;;4402805;32;20427;-76
2023/08/12 02:44:16;;;;;;;0.50;0.50;;;18.50;99.90;;;;;;4396751;32;20128;-76
2023/08/12 02:46:42;;;;;;;0.47;0.47;;;18.50;99.90;;;;;;4406652;32;20062;-75
2023/08/12 02:49:07;;;;;;;0.47;0.47;;;18.50;99.90;;;;;;4408068;32;20099;-76
2023/08/12 02:51:33;;;;;;;0.50;0.50;;;18.50;99.90;;;;;;4407734;32;20058;-75
2023/08/12 02:53:58;;;;;;;1.17;0.70;;;18.50;99.90;;;;;;4407268;32;20082;-77
2023/08/12 02:56:24;;;;;;;0.35;0.32;;;18.50;99.90;;;;;;4406872;32;20103;-76
2023/08/12 02:58:49;;;;;;;2.92;0.60;;;18.50;99.90;;;;;;4407471;32;20152;-77
2023/08/12 03:01:15;;;;;;;0.40;0.40;;;18.50;99.90;;;;;;4397258;32;20067;-77
2023/08/12 03:03:41;;;;;;;0.40;0.40;;;18.50;99.90;;;;;;4407770;32;20074;-76
2023/08/12 03:06:06;;;;;;;0.37;0.37;;;18.50;99.90;;;;;;4406879;32;20159;-77
2023/08/12 03:08:32;;;;;;;0.50;0.50;;;18.40;99.90;;;;;;4402844;32;20062;-76
2023/08/12 03:10:59;;;;;;;0.50;0.50;;;18.40;99.90;;;;;;4392910;32;20086;-77
2023/08/12 03:13:25;;;;;;;0.35;0.35;;;18.40;99.90;;;;;;4391926;32;20518;-75
2023/08/12 03:15:50;;;;;;;0.60;0.60;;;18.40;99.90;;;;;;4400204;32;20116;-76
2023/08/12 03:18:15;;;;;;;0.50;0.50;;;18.40;99.90;;;;;;4404167;32;20118;-77
2023/08/12 03:20:41;;;;;;;0.40;0.40;;;18.30;99.90;;;;;;4393020;32;20058;-76
2023/08/12 03:23:06;;;;;;;0.40;0.40;;;18.30;99.90;;;;;;4390720;32;20074;-76
2023/08/12 03:25:32;;;;;;;0.30;0.30;;;18.30;99.90;;;;;;4392675;32;20466;-77
2023/08/12 03:27:57;;;;;;;0.40;0.40;;;18.30;99.90;;;;;;4393891;32;20419;-76
2023/08/12 03:30:23;;;;;;;0.47;0.47;;;18.30;99.90;;;;;;4407195;32;20091;-76
2023/08/12 03:32:48;;;;;;;3.50;1.15;;;18.30;99.90;;;;;;4406618;32;20066;-76
2023/08/12 03:35:14;;;;;;;1.08;0.98;;;18.30;99.90;;;;;;4407263;32;20054;-75
2023/08/12 03:37:39;;;;;;;0.50;0.50;;;18.30;99.90;;;;;;4406678;32;20050;-76
2023/08/12 03:40:06;;;;;;;0.47;0.47;;;18.30;99.90;;;;;;4405893;32;20065;-75
2023/08/12 03:42:31;;;;;;;0.30;0.30;;;18.30;99.90;;;;;;4398944;32;20079;-75
2023/08/12 03:44:57;;;;;;;0.62;0.60;;;18.30;99.90;;;;;;4401390;32;20078;-76
2023/08/12 03:47:24;;;;;;;0.40;0.40;;;18.20;99.90;;;;;;4405736;32;20081;-76
2023/08/12 03:49:49;;;;;;;0.52;0.52;;;18.30;99.90;;;;;;4405277;32;20074;-76
2023/08/12 03:52:15;;;;;;;0.60;0.60;;;18.30;99.90;;;;;;4405496;32;20079;-76
2023/08/12 03:54:40;;;;;;;0.40;0.40;;;18.20;99.90;;;;;;4405391;32;20073;-76
2023/08/12 03:57:06;;;;;;;0.80;0.80;;;18.20;99.90;;;;;;4398858;32;20082;-76
2023/08/12 03:59:31;;;;;;;0.68;0.68;;;18.20;99.90;;;;;;4400852;32;20079;-75
2023/08/12 04:01:57;;;;;;;0.57;0.50;;;18.20;99.90;;;;;;4406069;32;20094;-76
2023/08/12 04:04:23;;;;;;;0.40;0.40;;;18.20;99.90;;;;;;4406800;32;20082;-76
2023/08/12 04:06:51;;;;;;;1.23;1.08;;;18.20;99.90;;;;;;4403439;32;20078;-76
2023/08/12 04:09:18;;;;;;;0.50;0.50;;;18.20;99.90;;;;;;4405670;32;20109;-77
2023/08/12 04:11:44;;;;;;;1.62;0.82;;;18.20;99.90;;;;;;4405340;32;20074;-76
2023/08/12 04:14:10;;;;;;;1.40;0.45;;;18.20;99.90;;;;;;4406636;32;20069;-77
2023/08/12 04:16:36;;;;;;;0.50;0.50;;;18.20;99.90;;;;;;4405479;32;20435;-76
2023/08/12 04:19:01;;;;;;;0.88;0.75;;;18.20;99.90;;;;;;4405858;32;20067;-76
2023/08/12 04:21:28;;;;;;;2.80;0.80;;;18.20;99.90;;;;;;4406670;32;20539;-76
2023/08/12 04:23:53;;;;;;;0.62;0.62;;;18.20;99.90;;;;;;4403037;32;20097;-76
2023/08/12 04:26:19;;;;;;;0.50;0.50;;;18.20;99.90;;;;;;4403980;32;20074;-76
2023/08/12 04:28:44;;;;;;;0.37;0.37;;;18.20;99.90;;;;;;4399331;32;20058;-76
2023/08/12 04:31:10;;;;;;;0.82;0.82;;;18.10;99.90;;;;;;4389714;32;20175;-77
2023/08/12 04:33:35;;;;;;;0.40;0.40;;;18.10;99.90;;;;;;4405716;32;20066;-76
2023/08/12 04:36:01;;;;;;;0.40;0.40;;;18.10;99.90;;;;;;4403756;32;20074;-76
2023/08/12 04:38:27;;;;;;;0.50;0.50;;;18.10;99.90;;;;;;4400799;32;20062;-77
2023/08/12 04:40:54;;;;;;;3.65;1.45;;;18.20;99.90;;;;;;4403833;32;20577;-77
2023/08/12 04:43:19;;;;;;;0.52;0.52;;;18.20;99.90;;;;;;4406587;32;20065;-75
2023/08/12 04:45:46;;;;;;;0.30;0.30;;;18.20;99.90;;;;;;4406432;32;20109;-77
2023/08/12 04:48:12;;;;;;;0.40;0.40;;;18.30;99.90;;;;;;4406021;32;20075;-76
2023/08/12 04:50:38;;;;;;;0.40;0.40;;;18.30;99.90;;;;;;4405398;32;20542;-76
2023/08/12 04:53:04;;;;;;;0.40;0.40;;;18.30;99.90;;;;;;4397185;32;20058;-76
2023/08/12 04:55:30;;;;;;;0.45;0.45;;;18.40;99.90;;;;;;4390238;32;20482;-76
2023/08/12 04:57:56;;;;;;;0.57;0.55;;;18.50;99.90;;;;;;4390959;32;20406;-76
2023/08/12 05:00:22;;;;;;;0.50;0.50;;;18.50;99.90;;;;;;4405467;32;20070;-76
2023/08/12 05:02:48;;;;;;;0.68;0.68;;;18.60;99.90;;;;;;4404931;32;20078;-76
2023/08/12 05:05:13;;;;;;;0.62;0.60;;;18.60;99.90;;;;;;4407550;32;20078;-75
2023/08/12 05:07:39;;;;;;;0.43;0.43;;;18.70;99.90;;;;;;4407432;32;20078;-76
2023/08/12 05:10:05;;;;;;;0.40;0.40;;;18.90;99.90;;;;;;4407367;32;20069;-77
2023/08/12 05:12:30;;;;;;;0.40;0.40;;;19.00;99.90;;;;;;4404144;32;20074;-76
2023/08/12 05:14:56;;;;;;;0.30;0.30;;;19.00;99.90;;;;;;4407007;32;20082;-76
2023/08/12 05:17:21;;;;;;;0.40;0.40;;;19.10;99.90;;;;;;4405943;32;20062;-77
2023/08/12 05:19:47;;;;;;;0.30;0.30;;;19.20;99.90;;;;;;4406125;32;20066;-76
2023/08/12 05:22:12;;;;;;;0.93;0.55;;;19.40;99.90;;;;;;4405272;32;20062;-76
2023/08/12 05:24:38;;;;;;;0.40;0.40;;;19.50;99.90;;;;;;4407601;32;20074;-77
2023/08/12 05:27:04;;;;;;;0.60;0.60;;;19.60;99.90;;;;;;4405620;32;20087;-76
2023/08/12 05:29:30;;;;;;;0.85;0.82;;;19.70;99.90;;;;;;4405529;32;20066;-76
2023/08/12 05:31:56;;;;;;;1.20;0.75;;;19.70;99.90;;;;;;4403168;32;20070;-77
2023/08/12 05:34:21;;;;;;;0.40;0.40;;;19.90;99.90;;;;;;4390115;32;20597;-77
2023/08/12 05:36:47;;;;;;;0.40;0.40;;;20.00;99.90;;;;;;4396469;32;20157;-76
2023/08/12 05:39:15;;;;;;;0.45;0.45;;;20.10;99.90;;;;;;4401508;32;20078;-77
2023/08/12 05:41:40;;;;;;;0.52;0.50;;;20.20;99.90;;;;;;4390958;32;20166;-77
2023/08/12 05:44:06;;;;;;;0.40;0.40;;;20.20;99.90;;;;;;4405532;32;20074;-75
2023/08/12 05:46:31;;;;;;;0.77;0.65;;;20.30;99.90;;;;;;4406400;32;20058;-76
2023/08/12 05:48:57;;;;;;;0.40;0.40;;;20.30;99.90;;;;;;4405309;32;20145;-76
2023/08/12 05:51:22;;;;;;;4.10;1.55;;;20.40;99.90;;;;;;4405337;32;20070;-76
2023/08/12 05:53:48;;;;;;;0.75;0.57;;;20.30;99.90;;;;;;4406278;32;20062;-76
2023/08/12 05:56:14;;;;;;;0.30;0.30;;;20.30;99.90;;;;;;4406694;32;20074;-76
2023/08/12 05:58:39;;;;;;;8.65;0.75;;;20.40;99.90;;;;;;4405830;32;20070;-77
2023/08/12 06:01:05;;;;;;;0.30;0.30;;;20.40;99.90;;;;;;4405095;32;20162;-76
2023/08/12 06:03:30;;;;;;;1.45;0.77;;;20.40;99.90;;;;;;4404174;32;20118;-77
2023/08/12 06:05:56;;;;;;;0.73;0.73;;;20.40;99.90;;;;;;4405675;32;20135;-77
2023/08/12 06:08:21;;;;;;;0.60;0.60;;;20.40;99.90;;;;;;4403651;32;20637;-76
2023/08/12 06:10:47;;;;;;;1.10;0.70;;;20.50;99.90;;;;;;4404542;32;20065;-77
2023/08/12 06:13:12;;;;;;;0.30;0.30;;;20.50;99.90;;;;;;4406867;32;20070;-77
2023/08/12 06:15:38;;;;;;;1.20;0.60;;;20.50;99.90;;;;;;4406160;32;20066;-77
2023/08/12 06:18:03;;;;;;;0.40;0.40;;;20.50;99.90;;;;;;4406204;32;20087;-76
2023/08/12 06:20:29;;;;;;;1.65;1.05;;;20.50;99.90;;;;;;4406274;32;20074;-76
2023/08/12 06:22:55;;;;;;;0.40;0.40;;;20.50;99.90;;;;;;4404617;32;20099;-77
2023/08/12 06:25:20;;;;;;;0.62;0.62;;;20.50;99.90;;;;;;4402467;32;20511;-76
2023/08/12 06:27:47;;;;;;;2.60;0.90;;;20.50;99.90;;;;;;4402431;32;20082;-77
2023/08/12 06:30:13;;;;;;;0.35;0.35;;;20.60;99.90;;;;;;4404456;32;20069;-76
2023/08/12 06:32:39;;;;;;;1.58;1.10;;;20.60;99.90;;;;;;4403652;32;20069;-76
2023/08/12 06:35:05;;;;;;;0.30;0.30;;;20.60;99.90;;;;;;4404894;32;20108;-76
2023/08/12 06:37:31;;;;;;;0.40;0.40;;;20.60;99.90;;;;;;4407032;32;20063;-76
2023/08/12 06:39:56;;;;;;;0.52;0.50;;;20.70;99.90;;;;;;4405686;32;20335;-76
2023/08/12 06:42:22;;;;;;;1.75;1.12;;;20.80;99.90;;;;;;4404351;32;20063;-77
2023/08/12 06:44:54;;;;;;;4.90;1.17;;;20.70;99.90;;;;;;4404901;32;20066;-76
2023/08/12 06:47:20;;;;;;;1.48;0.60;;;20.70;99.90;;;;;;4396086;32;20075;-78
2023/08/12 06:49:46;;;;;;;0.60;0.60;;;20.70;99.90;;;;;;4401011;32;20101;-76
2023/08/12 06:52:12;;;;;;;0.60;0.60;;;20.70;99.90;;;;;;4401660;32;20066;-77
2023/08/12 06:54:37;;;;;;;0.60;0.57;;;20.60;99.90;;;;;;4402015;32;20083;-76
2023/08/12 06:57:03;;;;;;;0.35;0.35;;;20.60;99.90;;;;;;4407259;32;20091;-76
2023/08/12 06:59:29;;;;;;;0.52;0.52;;;20.60;99.90;;;;;;4404948;32;20247;-76
2023/08/12 07:01:54;;;;;;;1.10;0.43;;;20.70;99.90;;;;;;4405390;32;20070;-76
2023/08/12 07:04:20;;;;;;;0.40;0.40;;;20.80;99.90;;;;;;4407782;32;20070;-76
2023/08/12 07:06:46;;;;;;;0.55;0.50;;;20.80;99.90;;;;;;4407517;32;20542;-76
2023/08/12 07:09:11;;;;;;;0.50;0.45;;;20.80;99.90;;;;;;4407903;32;20082;-76
2023/08/12 07:11:36;;;;;;;0.40;0.40;;;20.80;99.90;;;;;;4406721;32;20527;-75
2023/08/12 07:14:02;;;;;;;1.95;0.95;;;20.90;99.90;;;;;;4405489;32;20067;-76
2023/08/12 07:16:27;;;;;;;0.30;0.30;;;21.10;99.90;;;;;;4405182;32;20082;-76
2023/08/12 07:18:53;;;;;;;0.50;0.50;;;21.30;99.90;;;;;;4405671;32;20095;-76
2023/08/12 07:21:18;;;;;;;0.40;0.40;;;21.50;99.90;;;;;;4408526;32;20066;-75
2023/08/12 07:23:44;;;;;;;0.40;0.40;;;21.60;99.90;;;;;;4408774;32;20066;-76
2023/08/12 07:26:10;;;;;;;1.98;0.50;;;21.60;99.90;;;;;;4409957;32;20094;-76
2023/08/12 07:28:35;;;;;;;0.60;0.60;;;21.70;99.90;;;;;;4408311;32;20474;-77
2023/08/12 07:31:01;;;;;;;0.32;0.32;;;21.80;99.90;;;;;;4407613;32;20127;-77
2023/08/12 07:33:26;;;;;;;0.80;0.75;;;21.90;99.90;;;;;;4408616;32;20131;-76
2023/08/12 07:35:52;;;;;;;0.85;0.60;;;21.90;99.90;;;;;;4408113;32;20094;-75
2023/08/12 07:38:17;;;;;;;0.30;0.30;;;22.00;99.90;;;;;;4408697;32;20058;-76
2023/08/12 07:40:43;;;;;;;3.22;1.45;;;22.00;99.90;;;;;;4410253;32;20074;-76
2023/08/12 07:43:08;;;;;;;1.08;0.60;;;22.10;99.90;;;;;;4409617;32;20117;-75
2023/08/12 07:45:34;;;;;;;0.55;0.50;;;22.20;99.90;;;;;;4401462;32;20043;-75
2023/08/12 07:47:59;;;;;;;0.55;0.35;;;22.30;99.90;;;;;;4403955;32;20101;-75
2023/08/12 07:50:25;;;;;;;0.32;0.32;;;22.30;99.90;;;;;;4407070;32;20078;-75
2023/08/12 07:52:51;;;;;;;0.77;0.55;;;22.40;99.90;;;;;;4401675;32;20090;-76
2023/08/12 07:55:18;;;;;;;0.93;0.43;;;22.40;99.90;;;;;;4406807;32;20130;-76
2023/08/12 07:57:44;;;;;;;1.05;0.47;;;22.50;99.90;;;;;;4408307;32;20073;-76
2023/08/12 08:00:11;;;;;;;0.35;0.32;;;22.50;99.90;;;;;;4410126;32;20074;-77
2023/08/12 08:02:37;;;;;;;0.93;0.50;;;22.50;99.90;;;;;;4402708;32;20075;-76
2023/08/12 08:05:03;;;;;;;0.45;0.45;;;22.50;99.90;;;;;;4394789;32;20081;-75
2023/08/12 08:07:29;;;;;;;10.35;1.85;;;22.60;99.90;;;;;;4406079;32;20496;-76
2023/08/12 08:09:54;;;;;;;0.55;0.55;;;22.60;99.90;;;;;;4409092;32;20078;-76
2023/08/12 08:12:20;;;;;;;0.40;0.40;;;22.60;99.90;;;;;;4408976;32;20074;-75
2023/08/12 08:14:45;;;;;;;14.35;1.55;;;22.60;99.90;;;;;;4409261;32;20089;-75
2023/08/12 08:17:11;;;;;;;0.40;0.40;;;22.50;99.90;;;;;;4402471;32;20133;-76
2023/08/12 08:19:36;;;;;;;7.05;0.82;;;22.50;99.90;;;;;;4412274;32;20081;-76
2023/08/12 08:22:02;;;;;;;0.40;0.40;;;22.50;99.90;;;;;;4408044;32;20091;-76
2023/08/12 08:24:28;;;;;;;0.40;0.40;;;22.40;99.90;;;;;;4408642;32;20067;-76
2023/08/12 08:26:54;;;;;;;1.60;1.02;;;22.40;99.90;;;;;;4405855;32;20197;-76
2023/08/12 08:29:19;;;;;;;0.40;0.40;;;22.30;99.90;;;;;;4408030;32;20086;-76
2023/08/12 08:31:45;;;;;;;2.85;1.08;;;22.30;99.90;;;;;;4400314;32;20101;-77
2023/08/12 08:34:10;;;;;;;1.10;0.80;;;22.30;99.90;;;;;;4404074;32;20077;-76
2023/08/12 08:36:36;;;;;;;0.25;0.25;;;22.20;99.90;;;;;;4406224;32;20070;-77
2023/08/12 08:39:02;;;;;;;2.42;0.85;;;22.20;99.90;;;;;;4405869;32;20510;-77
2023/08/12 08:41:30;;;;;;;0.40;0.40;;;22.20;99.90;;;;;;4405833;32;20498;-77
2023/08/12 08:44:02;;;;;;;0.35;0.35;;;22.20;99.90;;;;;;4405066;32;20062;-77
2023/08/12 08:46:29;;;;;;;0.40;0.40;;;22.20;99.90;;;;;;4406536;32;20086;-77
2023/08/12 08:48:57;;;;;;;1.60;1.05;;;22.20;99.90;;;;;;4407613;32;20066;-77
2023/08/12 08:51:22;;;;;;;0.93;0.70;;;22.30;99.90;;;;;;4400120;32;20066;-77
2023/08/12 08:53:49;;;;;;;0.73;0.55;;;22.30;99.90;;;;;;4400763;32;20070;-77
2023/08/12 08:56:14;;;;;;;0.50;0.50;;;22.20;99.90;;;;;;4402912;32;20066;-75
2023/08/12 08:58:40;;;;;;;0.47;0.47;;;22.20;99.90;;;;;;4412259;32;20054;-75
2023/08/12 09:01:06;;;;;;;0.50;0.50;;;22.30;99.90;;;;;;4412000;32;20063;-76
2023/08/12 09:03:34;;;;;;;0.45;0.45;;;22.30;99.90;;;;;;4408015;32;20086;-76
2023/08/12 09:06:00;;;;;;;0.37;0.37;;;22.40;99.90;;;;;;4412111;32;20062;-76
2023/08/12 09:08:27;;;;;;;0.93;0.68;;;22.50;99.90;;;;;;4400188;32;20128;-76
2023/08/12 09:10:54;;;;;;;0.43;0.35;;;22.50;99.90;;;;;;4395944;32;20063;-76
2023/08/12 09:13:19;;;;;;;1.95;0.70;;;22.60;99.90;;;;;;4390917;32;20082;-76
2023/08/12 09:15:45;;;;;;;0.22;0.22;;;22.60;99.90;;;;;;4391121;32;20065;-76
2023/08/12 09:18:10;;;;;;;0.60;0.60;;;22.70;99.90;;;;;;4392865;32;20154;-77
2023/08/12 09:20:36;;;;;;;0.65;0.60;;;22.80;99.90;;;;;;4394247;32;20098;-76
2023/08/12 09:23:02;;;;;;;0.40;0.40;;;23.00;99.90;;;;;;4395011;32;20082;-76
2023/08/12 09:25:29;;;;;;;0.55;0.55;;;23.20;99.90;;;;;;4395702;32;20074;-77
2023/08/12 09:27:57;;;;;;;0.37;0.37;;;23.30;99.90;;;;;;4400675;32;20159;-77
2023/08/12 09:30:23;;;;;;;0.43;0.37;;;23.40;99.90;;;;;;4409693;32;20058;-76
2023/08/12 09:33:07;;;;;;;0.60;0.50;;;23.40;99.90;;;;;;4409096;32;20117;-77
2023/08/12 09:35:36;;;;;;;0.75;0.50;;;23.40;99.90;;;;;;4407370;32;20158;-77
2023/08/12 09:38:05;;;;;;;0.30;0.30;;;23.40;99.90;;;;;;4404121;32;20122;-77
2023/08/12 09:40:32;;;;;;;0.40;0.40;;;23.30;99.90;;;;;;4407457;32;20087;-76
2023/08/12 09:42:57;;;;;;;1.87;1.00;;;23.40;99.90;;;;;;4407284;32;20074;-76
2023/08/12 09:45:24;;;;;;;0.52;0.50;;;23.40;99.90;;;;;;4405970;32;20527;-77
2023/08/12 09:47:50;;;;;;;0.45;0.45;;;23.50;99.90;;;;;;4405727;32;20070;-76
2023/08/12 09:50:16;;;;;;;0.90;0.73;;;23.60;99.90;;;;;;4405883;32;20082;-77
2023/08/12 09:52:41;;;;;;;0.55;0.55;;;23.80;99.90;;;;;;4404300;32;20066;-77
2023/08/12 09:55:09;;;;;;;0.30;0.30;;;24.00;99.90;;;;;;4405202;32;20078;-76
2023/08/12 09:57:37;;;;;;;1.65;0.50;;;24.20;99.90;;;;;;4398921;32;20079;-77
2023/08/12 10:00:06;;;;;;;0.82;0.60;;;24.30;99.90;;;;;;4389140;32;20084;-76
2023/08/12 10:02:33;;;;;;;1.02;0.75;;;24.30;99.90;;;;;;4390277;32;20074;-77
2023/08/12 10:04:59;;;;;;;3.20;0.40;;;24.20;99.90;;;;;;4405235;32;20098;-76
2023/08/12 10:07:25;;;;;;;0.43;0.43;;;24.10;99.90;;;;;;4406171;32;20070;-76
2023/08/12 10:09:51;;;;;;;0.40;0.40;;;24.10;99.90;;;;;;4406476;32;20050;-77
2023/08/12 10:12:17;;;;;;;0.57;0.50;;;24.10;99.90;;;;;;4406816;32;20066;-77
2023/08/12 10:14:43;;;;;;;0.57;0.55;;;24.10;99.90;;;;;;4408590;32;20078;-76
2023/08/12 10:17:10;;;;;;;1.17;1.05;;;24.10;99.90;;;;;;4403960;32;20069;-77
2023/08/12 10:19:36;;;;;;;0.52;0.50;;;24.10;99.90;;;;;;4397000;32;20071;-76
2023/08/12 10:22:03;;;;;;;0.43;0.43;;;24.20;99.90;;;;;;4404291;32;20119;-76
2023/08/12 10:24:29;;;;;;;0.65;0.65;;;24.20;99.90;;;;;;4397930;32;20058;-76
2023/08/12 10:26:55;;;;;;;4.25;1.58;;;24.30;99.90;;;;;;4392743;32;20085;-76
2023/08/12 10:29:22;;;;;;;0.55;0.52;;;24.30;99.90;;;;;;4406991;32;20063;-77
2023/08/12 10:31:48;;;;;;;0.65;0.65;;;24.30;99.90;;;;;;4407231;32;20067;-75
2023/08/12 10:34:22;;;;;;;2.83;0.52;;;24.40;99.90;;;;;;4396153;32;20546;-76
2023/08/12 10:36:53;;;;;;;0.62;0.50;;;24.50;99.90;;;;;;4396559;32;20066;-76
2023/08/12 10:39:21;;;;;;;0.65;0.47;;;24.50;99.90;;;;;;4409057;32;20572;-77
2023/08/12 10:41:52;;;;;;;0.52;0.52;;;24.50;99.90;;;;;;4408352;32;20521;-76
2023/08/12 10:44:21;;;;;;;1.05;0.50;;;24.60;99.90;;;;;;4407282;32;20077;-76
2023/08/12 10:46:51;;;;;;;1.00;0.60;;;24.70;99.90;;;;;;4407230;32;20090;-76
2023/08/12 10:49:20;;;;;;;0.47;0.47;;;24.70;99.90;;;;;;4406104;32;20074;-76
2023/08/12 10:51:49;;;;;;;0.28;0.28;;;24.80;99.90;;;;;;4409405;32;20066;-76
2023/08/12 10:54:16;;;;;;;0.20;0.20;;;24.90;99.90;;;;;;4408620;32;20074;-75
2023/08/12 10:57:03;;;;;;;0.40;0.40;;;25.00;99.90;;;;;;4410631;32;20086;-75
2023/08/12 10:59:47;;;;;;;0.50;0.50;;;25.00;99.90;;;;;;4386493;32;20066;-75
2023/08/12 11:02:25;;;;;;;0.45;0.45;;;25.00;99.90;;;;;;4411686;32;20074;-75
2023/08/12 11:04:57;;;;;;;0.50;0.50;;;25.10;99.90;;;;;;4409580;32;20514;-75
2023/08/12 11:07:41;;;;;;;0.45;0.45;;;25.10;99.90;;;;;;4411257;32;20079;-76
2023/08/12 11:10:14;;;;;;;0.47;0.47;;;25.20;99.90;;;;;;4412082;32;20133;-76
2023/08/12 11:12:42;;;;;;;0.45;0.45;;;25.20;99.90;;;;;;4412054;32;20079;-77
2023/08/12 11:15:08;;;;;;;2.17;0.90;;;25.20;99.90;;;;;;4409934;32;20090;-77
2023/08/12 11:17:37;;;;;;;2.22;0.82;;;25.20;99.90;;;;;;4408278;32;20450;-77
2023/08/12 11:20:06;;;;;;;2.53;0.82;;;25.10;99.90;;;;;;4406135;32;20066;-77
2023/08/12 11:22:34;;;;;;;0.20;0.20;;;25.00;99.90;;;;;;4391913;32;20075;-77
2023/08/12 11:25:01;;;;;;;0.40;0.40;;;24.90;99.90;;;;;;4408230;32;20086;-77
2023/08/12 11:27:26;;;;;;;0.30;0.30;;;24.90;99.90;;;;;;4408736;32;20082;-78
2023/08/12 11:29:52;;;;;;;1.45;0.40;;;24.80;99.90;;;;;;4409397;32;20141;-77
2023/08/12 11:32:18;;;;;;;0.30;0.30;;;24.80;99.90;;;;;;4410494;32;20074;-78
2023/08/12 11:34:44;;;;;;;0.40;0.30;;;24.80;99.90;;;;;;4410264;32;20137;-77
2023/08/12 11:37:10;;;;;;;0.47;0.47;;;24.70;99.90;;;;;;4410066;32;20074;-78
2023/08/12 11:39:35;;;;;;;0.37;0.37;;;24.70;99.90;;;;;;4410606;32;20113;-77
2023/08/12 11:42:01;;;;;;;0.25;0.25;;;24.70;99.90;;;;;;4411548;32;20082;-77
2023/08/12 11:44:26;;;;;;;0.20;0.20;;;24.60;99.90;;;;;;4408034;32;20181;-78
2023/08/12 11:46:52;;;;;;;0.37;0.37;;;24.60;99.90;;;;;;4406743;32;87935;-77
2023/08/12 11:49:18;;;;;;;0.30;0.30;;;24.60;99.90;;;;;;4410560;32;20053;-77
2023/08/12 11:51:46;;;;;;;0.40;0.40;;;24.60;99.90;;;;;;4410313;32;20086;-77
2023/08/12 11:54:12;;;;;;;0.68;0.60;;;24.70;99.90;;;;;;4409457;32;20058;-78
2023/08/12 11:56:38;;;;;;;0.80;0.65;;;24.70;99.90;;;;;;4404442;32;20087;-78
2023/08/12 11:59:05;;;;;;;0.80;0.55;;;24.70;99.90;;;;;;4408014;32;20046;-76
2023/08/12 12:01:31;;;;;;;0.40;0.40;;;24.70;99.90;;;;;;4408076;32;20046;-76
2023/08/12 12:04:00;;;;;;;0.43;0.40;;;24.70;99.90;;;;;;4400649;32;20143;-78
2023/08/12 12:06:30;;;;;;;0.30;0.30;;;24.60;99.90;;;;;;4405196;32;20133;-75
2023/08/12 12:08:56;;;;;;;0.30;0.30;;;24.50;99.90;;;;;;4409525;32;20074;-76
2023/08/12 12:11:21;;;;;;;0.52;0.50;;;24.40;99.90;;;;;;4403706;32;20077;-74
2023/08/12 12:13:47;;;;;;;0.35;0.35;;;24.30;99.90;;;;;;4395466;32;20046;-76
2023/08/12 12:16:12;;;;;;;0.32;0.32;;;24.20;99.90;;;;;;4407454;32;20573;-76
2023/08/12 12:18:38;;;;;;;0.50;0.30;;;24.20;99.90;;;;;;4407664;32;20533;-76
2023/08/12 12:21:04;;;;;;;0.40;0.30;;;24.10;99.90;;;;;;4407517;32;20069;-76
2023/08/12 12:23:30;;;;;;;0.50;0.50;;;24.10;99.90;;;;;;4408461;32;20055;-76
2023/08/12 12:26:03;;;;;;;0.40;0.40;;;24.10;99.90;;;;;;4410551;32;20113;-75
2023/08/12 12:28:29;;;;;;;0.37;0.37;;;24.00;99.90;;;;;;4407351;32;20109;-75
2023/08/12 12:30:55;;;;;;;0.47;0.47;;;24.00;99.90;;;;;;4407386;32;20130;-75
2023/08/12 12:33:20;;;;;;;0.40;0.40;;;23.90;99.90;;;;;;4405591;32;20087;-77
2023/08/12 12:35:46;;;;;;;0.32;0.32;;;23.90;99.90;;;;;;4406754;32;20066;-76
2023/08/12 12:38:11;;;;;;;0.30;0.30;;;24.00;99.90;;;;;;4405124;32;20090;-75
2023/08/12 12:40:38;;;;;;;0.28;0.28;;;24.10;99.90;;;;;;4404917;32;20086;-76